createdAt,value
2023-02-06T00:00:13.640Z,102613.19
2023-02-06T00:05:15.427Z,102620.72
2023-02-06T00:10:16.914Z,102622.44
2023-02-06T00:15:18.454Z,102618.16
2023-02-06T00:20:19.953Z,102619.94
2023-02-06T00:25:21.334Z,102612.25
2023-02-06T00:30:22.721Z,102617.16
2023-02-06T00:35:24.198Z,102630.63
2023-02-06T00:40:25.570Z,102628.72
2023-02-06T00:45:26.990Z,102634.22
2023-02-06T00:50:28.432Z,102622.16
2023-02-06T00:55:29.873Z,102624.53
2023-02-06T01:00:31.570Z,102612.63
2023-02-06T01:05:33.162Z,102621.03
2023-02-06T01:10:34.781Z,102622.81
2023-02-06T01:15:37.050Z,102634.63
2023-02-06T01:20:39.797Z,102621.00
2023-02-06T01:25:41.210Z,102621.59
2023-02-06T01:30:42.616Z,102626.31
2023-02-06T01:35:44.072Z,102623.34
2023-02-06T01:40:45.504Z,102618.13
2023-02-06T01:45:47.177Z,102628.94
2023-02-06T01:50:53.037Z,102626.13
2023-02-06T01:55:56.392Z,102627.72
2023-02-06T02:00:59.901Z,102631.97
2023-02-06T02:06:06.598Z,102622.94
2023-02-06T02:11:10.677Z,102624.59
2023-02-06T02:16:33.346Z,102616.25
2023-02-06T02:21:48.238Z,102622.16
2023-02-06T02:27:01.859Z,102617.97
2023-02-06T02:32:45.200Z,102625.66
2023-02-06T02:37:46.586Z,102622.53
2023-02-06T02:43:22.619Z,102615.03
2023-02-06T02:48:28.272Z,102610.97
2023-02-06T02:53:31.448Z,102614.44
2023-02-06T02:58:34.684Z,102612.78
2023-02-06T03:03:40.181Z,102613.66
2023-02-06T03:08:56.756Z,102617.22
2023-02-06T03:14:15.382Z,102625.53
2023-02-06T03:19:22.858Z,102619.81
2023-02-06T03:24:28.713Z,102616.56
2023-02-06T03:29:33.820Z,102609.75
2023-02-06T03:34:42.931Z,102614.09
2023-02-06T03:39:44.465Z,102603.84
2023-02-06T03:44:53.586Z,102607.44
2023-02-06T03:49:57.715Z,102595.00
2023-02-06T03:55:04.585Z,102607.59
2023-02-06T04:00:06.822Z,102605.25
2023-02-06T04:05:08.774Z,102603.69
2023-02-06T04:10:10.317Z,102597.72
2023-02-06T04:15:11.873Z,102608.66
2023-02-06T04:20:13.489Z,102603.00
2023-02-06T04:25:15.151Z,102614.72
2023-02-06T04:30:17.901Z,102611.94
2023-02-06T04:35:19.400Z,102621.84
2023-02-06T04:40:21.227Z,102619.38
2023-02-06T04:45:22.618Z,102622.09
2023-02-06T04:50:24.605Z,102608.66
2023-02-06T04:55:26.031Z,102626.19
2023-02-06T05:00:27.434Z,102616.81
2023-02-06T05:05:28.917Z,102614.03
2023-02-06T05:10:30.301Z,102626.63
2023-02-06T05:15:31.690Z,102617.41
2023-02-06T05:20:33.099Z,102616.50
2023-02-06T05:25:35.887Z,102605.56
2023-02-06T05:30:37.448Z,102624.09
2023-02-06T05:35:40.511Z,102628.41
2023-02-06T05:40:41.984Z,102634.97
2023-02-06T05:45:43.370Z,102640.75
2023-02-06T05:50:44.785Z,102640.53
2023-02-06T05:55:46.261Z,102641.28
2023-02-06T06:00:47.869Z,102643.69
2023-02-06T06:05:49.296Z,102642.03
2023-02-06T06:10:52.424Z,102638.59
2023-02-06T06:15:53.950Z,102634.72
2023-02-06T06:20:55.561Z,102634.06
2023-02-06T06:25:56.956Z,102635.66
2023-02-06T06:31:06.734Z,102630.47
2023-02-06T06:36:09.954Z,102635.50
2023-02-06T06:41:11.385Z,102634.06
2023-02-06T06:46:12.835Z,102635.03
2023-02-06T06:51:14.266Z,102643.38
2023-02-06T06:56:15.744Z,102637.69
2023-02-06T07:01:18.723Z,102621.97
2023-02-06T07:06:20.174Z,102621.53
2023-02-06T07:11:21.672Z,102608.34
2023-02-06T07:16:23.226Z,102621.13
2023-02-06T07:21:24.681Z,102629.47
2023-02-06T07:26:26.108Z,102630.25
2023-02-06T07:31:27.767Z,102639.47
2023-02-06T07:36:29.207Z,102658.03
2023-02-06T07:41:30.611Z,102655.22
2023-02-06T07:46:33.074Z,102645.19
2023-02-06T07:51:34.437Z,102643.84
2023-02-06T07:56:36.014Z,102654.09
2023-02-06T08:01:37.419Z,102646.66
2023-02-06T08:06:42.392Z,102642.25
2023-02-06T08:11:44.395Z,102647.41
2023-02-06T08:16:46.217Z,102650.47
2023-02-06T08:21:47.708Z,102642.50
2023-02-06T08:26:49.138Z,102652.00
2023-02-06T08:31:50.621Z,102645.69
2023-02-06T08:36:52.150Z,102643.94
2023-02-06T08:41:53.647Z,102635.34
2023-02-06T08:47:08.895Z,102624.25
2023-02-06T08:52:11.424Z,102621.53
2023-02-06T08:57:13.293Z,102631.53
2023-02-06T09:02:14.805Z,102624.53
2023-02-06T09:07:17.332Z,102631.44
2023-02-06T09:12:18.944Z,102626.09
2023-02-06T09:17:20.377Z,102619.09
2023-02-06T09:22:21.770Z,102616.00
2023-02-06T09:27:23.222Z,102603.81
2023-02-06T09:32:24.667Z,102598.34
2023-02-06T09:37:26.140Z,102596.19
2023-02-06T09:42:32.779Z,102591.69
2023-02-06T09:47:37.599Z,102578.78
2023-02-06T09:53:16.858Z,102585.50
2023-02-06T09:58:33.708Z,102582.59
2023-02-06T10:03:56.888Z,102583.13
2023-02-06T10:09:14.103Z,102572.78
2023-02-06T10:14:24.571Z,102555.88
2023-02-06T10:19:46.583Z,102558.72
2023-02-06T10:25:00.086Z,102565.09
2023-02-06T10:30:01.752Z,102559.09
2023-02-06T10:35:23.570Z,102550.53
2023-02-06T10:41:05.884Z,102539.81
2023-02-06T10:46:30.671Z,102536.38
2023-02-06T10:51:33.583Z,102527.22
2023-02-06T10:56:46.802Z,102523.03
2023-02-06T11:01:53.859Z,102512.97
2023-02-06T11:07:01.469Z,102526.41
2023-02-06T11:12:04.157Z,102521.41
2023-02-06T11:17:05.652Z,102517.22
2023-02-06T11:22:07.416Z,102505.25
2023-02-06T11:27:20.589Z,102503.59
2023-02-06T11:32:41.155Z,102505.25
2023-02-06T11:37:42.574Z,102496.91
2023-02-06T11:43:06.964Z,102490.06
2023-02-06T11:48:36.158Z,102496.22
2023-02-06T11:53:38.423Z,102497.06
2023-02-06T11:58:39.941Z,102501.38
2023-02-06T12:03:50.489Z,102499.56
2023-02-06T12:08:53.378Z,102502.06
2023-02-06T12:14:01.007Z,102498.47
2023-02-06T12:19:06.023Z,102494.94
2023-02-06T12:24:26.493Z,102482.91
2023-02-06T12:29:36.435Z,102461.75
2023-02-06T12:34:49.700Z,102447.41
2023-02-06T12:39:51.846Z,102462.50
2023-02-06T12:45:02.135Z,102445.56
2023-02-06T12:50:17.107Z,102451.38
2023-02-06T12:55:50.114Z,102467.16
2023-02-06T13:01:28.646Z,102444.53
2023-02-06T13:06:44.205Z,102446.53
2023-02-06T13:11:45.971Z,102433.75
2023-02-06T13:17:34.426Z,102424.06
2023-02-06T13:22:45.740Z,102426.53
2023-02-06T13:27:48.495Z,102425.47
2023-02-06T13:32:50.774Z,102422.91
2023-02-06T13:38:30.735Z,102413.63
2023-02-06T13:43:32.569Z,102396.09
2023-02-06T13:49:10.111Z,102406.38
2023-02-06T13:54:34.057Z,102412.25
2023-02-06T13:59:41.158Z,102414.69
2023-02-06T14:04:46.529Z,102413.56
2023-02-06T14:10:00.104Z,102415.03
2023-02-06T14:15:07.620Z,102411.47
2023-02-06T14:20:20.934Z,102427.44
2023-02-06T14:25:28.304Z,102414.25
2023-02-06T14:30:33.425Z,102418.44
2023-02-06T14:35:40.932Z,102409.78
2023-02-06T14:40:44.955Z,102408.13
2023-02-06T14:46:06.079Z,102403.81
2023-02-06T14:51:20.783Z,102411.38
2023-02-06T14:56:28.858Z,102409.00
2023-02-06T15:01:32.628Z,102422.38
2023-02-06T15:06:37.721Z,102413.00
2023-02-06T15:11:39.769Z,102408.63
2023-02-06T15:16:51.340Z,102414.03
2023-02-06T15:22:00.738Z,102407.19
2023-02-06T15:27:14.389Z,102415.56
2023-02-06T15:32:25.239Z,102400.13
2023-02-06T15:37:34.784Z,102401.84
2023-02-06T15:42:36.621Z,102407.50
2023-02-06T15:47:41.242Z,102400.53
2023-02-06T15:52:47.023Z,102401.16
2023-02-06T15:57:49.179Z,102395.94
2023-02-06T16:02:52.482Z,102379.13
2023-02-06T16:07:54.856Z,102401.75
2023-02-06T16:13:00.070Z,102397.47
2023-02-06T16:18:37.766Z,102402.22
2023-02-06T16:23:48.604Z,102402.94
2023-02-06T16:28:52.972Z,102413.72
2023-02-06T16:33:56.369Z,102417.72
2023-02-06T16:39:04.098Z,102425.84
2023-02-06T16:44:15.338Z,102414.63
2023-02-06T16:49:19.740Z,102422.84
2023-02-06T16:54:30.851Z,102434.47
2023-02-06T16:59:32.303Z,102430.47
2023-02-06T17:04:33.811Z,102429.91
2023-02-06T17:09:35.318Z,102430.03
2023-02-06T17:14:36.686Z,102429.28
2023-02-06T17:19:38.293Z,102432.75
2023-02-06T17:24:40.538Z,102434.56
2023-02-06T17:29:41.975Z,102424.66
2023-02-06T17:34:43.426Z,102451.50
2023-02-06T17:39:44.816Z,102438.72
2023-02-06T17:44:46.269Z,102439.47
2023-02-06T17:49:47.791Z,102421.00
2023-02-06T17:54:49.362Z,102411.00
2023-02-06T17:59:53.414Z,102386.63
2023-02-06T18:04:54.999Z,102387.28
2023-02-06T18:09:56.424Z,102369.94
2023-02-06T18:14:57.901Z,102377.25
2023-02-06T18:19:59.415Z,102365.38
2023-02-06T18:25:03.268Z,102367.78
2023-02-06T18:30:11.325Z,102365.22
2023-02-06T18:35:14.841Z,102370.41
2023-02-06T18:40:16.720Z,102352.91
2023-02-06T18:45:19.187Z,102357.09
2023-02-06T18:50:21.899Z,102366.94
2023-02-06T18:55:24.114Z,102357.50
2023-02-06T19:00:25.731Z,102362.47
2023-02-06T19:05:28.961Z,102358.06
2023-02-06T19:10:30.413Z,102358.84
2023-02-06T19:15:34.531Z,102355.38
2023-02-06T19:20:36.260Z,102362.13
2023-02-06T19:25:40.588Z,102365.69
2023-02-06T19:30:42.112Z,102356.41
2023-02-06T19:35:44.165Z,102352.09
2023-02-06T19:40:47.449Z,102354.56
2023-02-06T19:45:48.938Z,102357.00
2023-02-06T19:50:50.414Z,102348.53
2023-02-06T19:55:51.817Z,102358.47
2023-02-06T20:00:55.133Z,102356.78
2023-02-06T20:06:01.102Z,102356.06
2023-02-06T20:11:13.376Z,102375.28
2023-02-06T20:16:21.283Z,102377.78
2023-02-06T20:21:29.474Z,102385.41
2023-02-06T20:26:34.876Z,102389.69
2023-02-06T20:31:37.039Z,102380.00
2023-02-06T20:36:38.796Z,102381.34
2023-02-06T20:41:40.466Z,102393.56
2023-02-06T20:46:43.174Z,102386.84
2023-02-06T20:51:44.779Z,102392.75
2023-02-06T20:56:46.310Z,102392.81
2023-02-06T21:01:47.918Z,102392.00
2023-02-06T21:06:49.973Z,102396.59
2023-02-06T21:11:51.426Z,102394.44
2023-02-06T21:16:52.833Z,102387.25
2023-02-06T21:21:54.611Z,102405.03
2023-02-06T21:26:56.199Z,102389.25
2023-02-06T21:32:12.214Z,102371.00
2023-02-06T21:37:15.101Z,102365.09
2023-02-06T21:42:16.668Z,102364.19
2023-02-06T21:47:18.081Z,102362.25
2023-02-06T21:52:19.539Z,102355.06
2023-02-06T21:57:20.917Z,102360.03
2023-02-06T22:02:22.603Z,102371.97
2023-02-06T22:07:24.004Z,102369.41
2023-02-06T22:12:25.498Z,102360.19
2023-02-06T22:17:29.201Z,102355.88
2023-02-06T22:22:30.622Z,102363.22
2023-02-06T22:27:32.927Z,102365.06
2023-02-06T22:32:39.682Z,102358.00
2023-02-06T22:37:43.088Z,102368.38
2023-02-06T22:42:45.804Z,102351.22
2023-02-06T22:47:47.201Z,102339.06
2023-02-06T22:53:07.332Z,102350.38
2023-02-06T22:58:08.773Z,102345.09
2023-02-06T23:03:10.159Z,102360.66
2023-02-06T23:08:11.605Z,102366.41
2023-02-06T23:13:13.272Z,102371.31
2023-02-06T23:18:14.738Z,102370.31
2023-02-06T23:23:16.108Z,102385.34
2023-02-06T23:28:17.644Z,102389.31
2023-02-06T23:33:19.497Z,102396.78
2023-02-06T23:38:21.271Z,102401.59
2023-02-06T23:43:22.702Z,102398.16
2023-02-06T23:48:24.149Z,102399.44
2023-02-06T23:53:25.702Z,102405.06
2023-02-06T23:58:27.295Z,102399.75
